Time;durP1;ratioP1;P1;durP2;ratioP2;P2;SDS_P1;SDS_P2;PMS_P1;PMS_P2;Temp;Humidity;BMP_temperature;BMP_pressure;BME280_temperature;BME280_humidity;BME280_pressure;Samples;Min_cycle;Max_cycle;Signal;HPM_P1;HPM_P2
2023/08/31 00:01:56;;;;;;;0.00;0.00;;;;;;;;;;7384198;19;20560;-71
2023/08/31 00:04:25;;;;;;;0.00;0.00;;;;;;;;;;7385257;19;20432;-71
2023/08/31 00:06:54;;;;;;;0.00;0.00;;;;;;;;;;7387107;19;20175;-71
2023/08/31 00:09:25;;;;;;;0.00;0.00;;;;;;;;;;7384954;19;20157;-72
2023/08/31 00:11:54;;;;;;;0.00;0.00;;;;;;;;;;7385695;19;20153;-71
2023/08/31 00:14:23;;;;;;;0.00;0.00;;;;;;;;;;7383761;19;20152;-72
2023/08/31 00:16:53;;;;;;;0.00;0.00;;;;;;;;;;7386777;19;20137;-71
2023/08/31 00:19:22;;;;;;;0.00;0.00;;;;;;;;;;7381069;19;20137;-71
2023/08/31 00:21:51;;;;;;;0.00;0.00;;;;;;;;;;7385277;19;20179;-71
2023/08/31 00:24:28;;;;;;;0.00;0.00;;;;;;;;;;7385577;19;20144;-71
2023/08/31 00:26:59;;;;;;;0.00;0.00;;;;;;;;;;7386579;19;20145;-71
2023/08/31 00:29:29;;;;;;;0.00;0.00;;;;;;;;;;7384994;19;20164;-71
2023/08/31 00:32:01;;;;;;;0.00;0.00;;;;;;;;;;7384978;19;20148;-71
2023/08/31 00:34:30;;;;;;;0.00;0.00;;;;;;;;;;7382114;19;20160;-71
2023/08/31 00:36:59;;;;;;;0.00;0.00;;;;;;;;;;7384130;19;20171;-71
2023/08/31 00:39:28;;;;;;;0.00;0.00;;;;;;;;;;7385033;19;20145;-71
2023/08/31 00:42:00;;;;;;;0.00;0.00;;;;;;;;;;7382501;19;20184;-71
2023/08/31 00:44:29;;;;;;;0.00;0.00;;;;;;;;;;7382599;19;20762;-71
2023/08/31 00:46:58;;;;;;;0.00;0.00;;;;;;;;;;7383767;19;20164;-71
2023/08/31 00:49:27;;;;;;;0.00;0.00;;;;;;;;;;7384141;19;20159;-71
2023/08/31 00:51:57;;;;;;;0.00;0.00;;;;;;;;;;7382081;19;20176;-71
2023/08/31 00:54:26;;;;;;;0.00;0.00;;;;;;;;;;7382058;19;20212;-71
2023/08/31 00:57:00;;;;;;;0.00;0.00;;;;;;;;;;7382830;19;20145;-71
2023/08/31 00:59:29;;;;;;;0.00;0.00;;;;;;;;;;7384374;19;20153;-71
2023/08/31 01:02:01;;;;;;;0.00;0.00;;;;;;;;;;7383920;19;20149;-71
2023/08/31 01:04:35;;;;;;;0.00;0.00;;;;;;;;;;7382300;19;20156;-71
2023/08/31 01:07:08;;;;;;;0.00;0.00;;;;;;;;;;7384604;19;20159;-71
2023/08/31 01:09:42;;;;;;;0.00;0.00;;;;;;;;;;7383068;19;20152;-71
2023/08/31 01:12:15;;;;;;;0.00;0.00;;;;;;;;;;7381861;19;20180;-71
2023/08/31 01:14:46;;;;;;;0.00;0.00;;;;;;;;;;7381579;19;20183;-71
2023/08/31 01:17:15;;;;;;;0.00;0.00;;;;;;;;;;7384076;19;20154;-71
2023/08/31 01:19:49;;;;;;;0.00;0.00;;;;;;;;;;7383043;19;20173;-71
2023/08/31 01:22:21;;;;;;;0.00;0.00;;;;;;;;;;7381384;19;20757;-71
2023/08/31 01:24:53;;;;;;;0.00;0.00;;;;;;;;;;7384529;19;20140;-70
2023/08/31 01:27:22;;;;;;;0.00;0.00;;;;;;;;;;7382929;19;20156;-71
2023/08/31 01:29:51;;;;;;;0.00;0.00;;;;;;;;;;7381345;19;20165;-70
2023/08/31 01:32:20;;;;;;;0.00;0.00;;;;;;;;;;7381475;19;20188;-71
2023/08/31 01:34:50;;;;;;;0.00;0.00;;;;;;;;;;7382943;19;20198;-71
2023/08/31 01:37:22;;;;;;;0.00;0.00;;;;;;;;;;7382823;19;20177;-71
2023/08/31 01:39:56;;;;;;;0.00;0.00;;;;;;;;;;7383159;19;20149;-71
2023/08/31 01:42:25;;;;;;;0.00;0.00;;;;;;;;;;7381488;19;20239;-71
2023/08/31 01:44:55;;;;;;;0.00;0.00;;;;;;;;;;7381070;19;20157;-71
2023/08/31 01:47:24;;;;;;;0.00;0.00;;;;;;;;;;7382420;19;20165;-70
2023/08/31 01:49:54;;;;;;;0.00;0.00;;;;;;;;;;7383927;19;20141;-71
2023/08/31 01:52:23;;;;;;;0.00;0.00;;;;;;;;;;7378917;19;20769;-70
2023/08/31 01:54:55;;;;;;;0.00;0.00;;;;;;;;;;7380871;19;20145;-71
2023/08/31 01:57:24;;;;;;;0.00;0.00;;;;;;;;;;7381696;19;20160;-71
2023/08/31 02:00:07;;;;;;;0.00;0.00;;;;;;;;;;7382194;19;20212;-71
2023/08/31 02:02:43;;;;;;;0.00;0.00;;;;;;;;;;7382121;19;20160;-70
2023/08/31 02:05:12;;;;;;;0.00;0.00;;;;;;;;;;7381612;19;20149;-71
2023/08/31 02:07:41;;;;;;;0.00;0.00;;;;;;;;;;7383258;19;20149;-71
2023/08/31 02:10:13;;;;;;;0.00;0.00;;;;;;;;;;7381633;19;20153;-71
2023/08/31 02:12:45;;;;;;;0.00;0.00;;;;;;;;;;7379103;19;20180;-71
2023/08/31 02:15:15;;;;;;;0.00;0.00;;;;;;;;;;7380701;19;20153;-71
2023/08/31 02:17:44;;;;;;;0.00;0.00;;;;;;;;;;7381544;19;20157;-70
2023/08/31 02:20:14;;;;;;;0.00;0.00;;;;;;;;;;7383151;19;20147;-70
2023/08/31 02:22:43;;;;;;;0.00;0.00;;;;;;;;;;7379020;19;20184;-70
2023/08/31 02:25:16;;;;;;;0.00;0.00;;;;;;;;;;7381110;19;20193;-71
2023/08/31 02:27:45;;;;;;;0.00;0.00;;;;;;;;;;7381661;19;20162;-71
2023/08/31 02:30:14;;;;;;;0.00;0.00;;;;;;;;;;7383126;19;20129;-71
2023/08/31 02:32:43;;;;;;;0.00;0.00;;;;;;;;;;7383153;19;20206;-71
2023/08/31 02:35:14;;;;;;;0.00;0.00;;;;;;;;;;7386589;19;20154;-71
2023/08/31 02:37:43;;;;;;;0.00;0.00;;;;;;;;;;7388300;19;20160;-71
2023/08/31 02:40:16;;;;;;;0.00;0.00;;;;;;;;;;7388474;19;20152;-71
2023/08/31 02:42:45;;;;;;;0.00;0.00;;;;;;;;;;7386555;19;20172;-71
2023/08/31 02:45:15;;;;;;;0.00;0.00;;;;;;;;;;7387632;19;20195;-71
2023/08/31 02:47:44;;;;;;;0.00;0.00;;;;;;;;;;7390101;19;20136;-70
2023/08/31 02:50:13;;;;;;;0.00;0.00;;;;;;;;;;7389328;19;20145;-71
2023/08/31 02:52:43;;;;;;;0.00;0.00;;;;;;;;;;7387286;19;20192;-71
2023/08/31 02:55:12;;;;;;;0.00;0.00;;;;;;;;;;7387321;19;20131;-70
2023/08/31 02:57:43;;;;;;;0.00;0.00;;;;;;;;;;7388044;19;20149;-71
2023/08/31 03:00:15;;;;;;;0.00;0.00;;;;;;;;;;7387042;19;20220;-70
2023/08/31 03:02:44;;;;;;;0.00;0.00;;;;;;;;;;7385287;19;20181;-70
2023/08/31 03:05:13;;;;;;;0.00;0.00;;;;;;;;;;7386960;19;20160;-70
2023/08/31 03:07:42;;;;;;;0.00;0.00;;;;;;;;;;7387853;19;20160;-70
2023/08/31 03:10:12;;;;;;;0.00;0.00;;;;;;;;;;7387705;19;20182;-70
2023/08/31 03:12:43;;;;;;;0.00;0.00;;;;;;;;;;7384992;19;20193;-71
2023/08/31 03:15:12;;;;;;;0.00;0.00;;;;;;;;;;7388046;19;20147;-71
2023/08/31 03:17:41;;;;;;;0.00;0.00;;;;;;;;;;7387449;19;20164;-70
2023/08/31 03:20:15;;;;;;;0.00;0.00;;;;;;;;;;7384511;19;20799;-70
2023/08/31 03:22:44;;;;;;;0.00;0.00;;;;;;;;;;7384498;19;20184;-70
2023/08/31 03:25:13;;;;;;;0.00;0.00;;;;;;;;;;7386764;19;20165;-70
2023/08/31 03:27:44;;;;;;;0.00;0.00;;;;;;;;;;7388211;19;20129;-70
2023/08/31 03:30:15;;;;;;;0.00;0.00;;;;;;;;;;7386303;19;20758;-71
2023/08/31 03:32:44;;;;;;;0.00;0.00;;;;;;;;;;7383295;19;20983;-70
2023/08/31 03:35:14;;;;;;;0.00;0.00;;;;;;;;;;7385398;19;20167;-71
2023/08/31 03:37:43;;;;;;;0.00;0.00;;;;;;;;;;7386004;19;20208;-70
2023/08/31 03:40:12;;;;;;;0.00;0.00;;;;;;;;;;7386137;19;20590;-71
2023/08/31 03:42:41;;;;;;;0.00;0.00;;;;;;;;;;7384138;19;20241;-71
2023/08/31 03:45:13;;;;;;;0.00;0.00;;;;;;;;;;7386220;19;20151;-70
2023/08/31 03:47:42;;;;;;;0.00;0.00;;;;;;;;;;7386834;19;20145;-71
2023/08/31 03:50:11;;;;;;;0.00;0.00;;;;;;;;;;7386029;19;20160;-70
2023/08/31 03:52:41;;;;;;;0.00;0.00;;;;;;;;;;7385967;19;20271;-70
2023/08/31 03:55:10;;;;;;;0.00;0.00;;;;;;;;;;7385268;19;20156;-70
2023/08/31 03:57:39;;;;;;;0.00;0.00;;;;;;;;;;7387858;19;20145;-70
2023/08/31 04:00:21;;;;;;;0.00;0.00;;;;;;;;;;7385823;19;20236;-70
2023/08/31 04:02:50;;;;;;;0.00;0.00;;;;;;;;;;7385439;19;20153;-70
2023/08/31 04:05:24;;;;;;;0.00;0.00;;;;;;;;;;7385228;19;20169;-71
2023/08/31 04:07:53;;;;;;;0.00;0.00;;;;;;;;;;7385689;19;20164;-70
2023/08/31 04:10:23;;;;;;;0.00;0.00;;;;;;;;;;7386772;19;20141;-70
2023/08/31 04:12:55;;;;;;;0.00;0.00;;;;;;;;;;7382848;19;20184;-71
2023/08/31 04:15:27;;;;;;;0.00;0.00;;;;;;;;;;7384748;19;20152;-71
2023/08/31 04:17:56;;;;;;;0.00;0.00;;;;;;;;;;7387165;19;20152;-70
2023/08/31 04:20:25;;;;;;;0.00;0.00;;;;;;;;;;7386773;19;20141;-70
2023/08/31 04:22:54;;;;;;;0.00;0.00;;;;;;;;;;7382732;19;20207;-70
2023/08/31 04:25:23;;;;;;;0.00;0.00;;;;;;;;;;7387027;19;20149;-70
2023/08/31 04:27:52;;;;;;;0.00;0.00;;;;;;;;;;7385001;19;20153;-70
2023/08/31 04:30:21;;;;;;;0.00;0.00;;;;;;;;;;7387260;19;20133;-70
2023/08/31 04:32:53;;;;;;;0.00;0.00;;;;;;;;;;7384334;19;20157;-70
2023/08/31 04:35:22;;;;;;;0.00;0.00;;;;;;;;;;7384328;19;20163;-70
2023/08/31 04:37:51;;;;;;;0.00;0.00;;;;;;;;;;7386882;19;20636;-70
2023/08/31 04:40:20;;;;;;;0.00;0.00;;;;;;;;;;7384345;19;20161;-70
2023/08/31 04:42:49;;;;;;;0.00;0.00;;;;;;;;;;7383464;19;20244;-71
2023/08/31 04:45:18;;;;;;;0.00;0.00;;;;;;;;;;7385876;19;20132;-70
2023/08/31 04:47:49;;;;;;;0.00;0.00;;;;;;;;;;7384897;19;20160;-70
2023/08/31 04:50:21;;;;;;;0.00;0.00;;;;;;;;;;7388454;19;20129;-70
2023/08/31 04:52:51;;;;;;;0.00;0.00;;;;;;;;;;7383174;19;20248;-71
2023/08/31 04:55:21;;;;;;;0.00;0.00;;;;;;;;;;7383225;19;20133;-70
2023/08/31 04:57:50;;;;;;;0.00;0.00;;;;;;;;;;7383585;19;20222;-70
2023/08/31 05:00:19;;;;;;;0.00;0.00;;;;;;;;;;7383154;19;20236;-70
2023/08/31 05:02:48;;;;;;;0.03;0.03;;;;;;;;;;7384095;19;20161;-70
2023/08/31 05:05:18;;;;;;;0.00;0.00;;;;;;;;;;7385533;19;20646;-70
2023/08/31 05:07:49;;;;;;;0.00;0.00;;;;;;;;;;7385251;19;20141;-71
2023/08/31 05:10:19;;;;;;;0.00;0.00;;;;;;;;;;7384837;19;20150;-71
2023/08/31 05:12:48;;;;;;;0.00;0.00;;;;;;;;;;7382207;19;20232;-70
2023/08/31 05:15:17;;;;;;;0.00;0.00;;;;;;;;;;7383360;19;20152;-70
2023/08/31 05:17:47;;;;;;;0.00;0.00;;;;;;;;;;7383014;19;20169;-70
2023/08/31 05:20:16;;;;;;;0.00;0.00;;;;;;;;;;7382897;19;20140;-70
2023/08/31 05:22:46;;;;;;;0.00;0.00;;;;;;;;;;7381013;19;20184;-71
2023/08/31 05:25:18;;;;;;;0.00;0.00;;;;;;;;;;7382935;19;20152;-70
2023/08/31 05:27:47;;;;;;;0.00;0.00;;;;;;;;;;7382840;19;20145;-71
2023/08/31 05:30:16;;;;;;;0.00;0.00;;;;;;;;;;7382964;19;20152;-70
2023/08/31 05:32:43;;;;;;;0.00;0.00;;;;;;;;;;7379822;19;20176;-70
2023/08/31 05:35:12;;;;;;;0.00;0.00;;;;;;;;;;7384560;19;20160;-70
2023/08/31 05:37:41;;;;;;;0.00;0.00;;;;;;;;;;7382744;19;20156;-70
2023/08/31 05:40:11;;;;;;;0.00;0.00;;;;;;;;;;7382458;19;20175;-70
2023/08/31 05:42:42;;;;;;;0.00;0.00;;;;;;;;;;7381673;19;20199;-71
2023/08/31 05:45:12;;;;;;;0.00;0.00;;;;;;;;;;7384582;19;20137;-71
2023/08/31 05:47:42;;;;;;;0.00;0.00;;;;;;;;;;7384226;19;20215;-70
2023/08/31 05:50:11;;;;;;;0.00;0.00;;;;;;;;;;7382633;19;20160;-71
2023/08/31 05:52:43;;;;;;;0.00;0.00;;;;;;;;;;7382149;19;20175;-70
2023/08/31 05:55:12;;;;;;;0.00;0.00;;;;;;;;;;7384651;19;20128;-71
2023/08/31 05:57:44;;;;;;;0.00;0.00;;;;;;;;;;7383287;19;20137;-70
2023/08/31 06:00:14;;;;;;;0.00;0.00;;;;;;;;;;7381759;19;20149;-70
2023/08/31 06:02:44;;;;;;;0.00;0.00;;;;;;;;;;7380098;19;20183;-70
2023/08/31 06:05:16;;;;;;;0.00;0.00;;;;;;;;;;7381904;19;20161;-70
2023/08/31 06:07:45;;;;;;;0.00;0.00;;;;;;;;;;7382912;19;20137;-71
2023/08/31 06:10:14;;;;;;;0.00;0.00;;;;;;;;;;7382051;19;20170;-70
2023/08/31 06:12:46;;;;;;;0.00;0.00;;;;;;;;;;7381416;19;20532;-70
2023/08/31 06:15:15;;;;;;;0.00;0.00;;;;;;;;;;7384040;19;20133;-71
2023/08/31 06:17:44;;;;;;;0.00;0.00;;;;;;;;;;7381631;19;20128;-70
2023/08/31 06:20:14;;;;;;;0.00;0.00;;;;;;;;;;7382644;19;20256;-70
2023/08/31 06:22:43;;;;;;;0.00;0.00;;;;;;;;;;7379525;19;20184;-71
2023/08/31 06:25:15;;;;;;;0.00;0.00;;;;;;;;;;7383332;19;20137;-71
2023/08/31 06:27:47;;;;;;;0.00;0.00;;;;;;;;;;7383046;19;20171;-71
2023/08/31 06:30:16;;;;;;;0.00;0.00;;;;;;;;;;7383382;19;20136;-70
2023/08/31 06:32:46;;;;;;;0.00;0.00;;;;;;;;;;7378300;19;20192;-70
2023/08/31 06:35:15;;;;;;;0.00;0.00;;;;;;;;;;7381425;19;20217;-70
2023/08/31 06:37:45;;;;;;;0.00;0.00;;;;;;;;;;7381599;19;20133;-70
2023/08/31 06:40:14;;;;;;;0.00;0.00;;;;;;;;;;7383444;19;20493;-70
2023/08/31 06:42:43;;;;;;;0.00;0.00;;;;;;;;;;7380857;19;20153;-70
2023/08/31 06:45:15;;;;;;;0.00;0.00;;;;;;;;;;7383760;19;20129;-70
2023/08/31 06:47:45;;;;;;;0.00;0.00;;;;;;;;;;7380624;19;20177;-71
2023/08/31 06:50:13;;;;;;;0.00;0.00;;;;;;;;;;7382677;19;20141;-71
2023/08/31 06:52:46;;;;;;;0.00;0.00;;;;;;;;;;7379072;19;20184;-70
2023/08/31 06:55:15;;;;;;;0.00;0.00;;;;;;;;;;7382612;19;20132;-70
2023/08/31 06:57:45;;;;;;;0.00;0.00;;;;;;;;;;7378009;19;20156;-69
2023/08/31 07:00:18;;;;;;;0.00;0.00;;;;;;;;;;7381993;19;20140;-70
2023/08/31 07:02:47;;;;;;;0.00;0.00;;;;;;;;;;7377626;19;20184;-70
2023/08/31 07:05:16;;;;;;;0.00;0.00;;;;;;;;;;7381994;19;20144;-70
2023/08/31 07:07:45;;;;;;;0.00;0.00;;;;;;;;;;7381998;19;20140;-70
2023/08/31 07:10:13;;;;;;;0.00;0.00;;;;;;;;;;7381179;19;20137;-69
2023/08/31 07:12:43;;;;;;;0.00;0.00;;;;;;;;;;7378934;19;20145;-70
2023/08/31 07:15:12;;;;;;;0.00;0.00;;;;;;;;;;7381597;19;20145;-70
2023/08/31 07:17:44;;;;;;;0.00;0.00;;;;;;;;;;7379434;19;20160;-70
2023/08/31 07:20:14;;;;;;;0.00;0.00;;;;;;;;;;7388018;19;20143;-69
2023/08/31 07:22:43;;;;;;;0.00;0.00;;;;;;;;;;7384803;19;20215;-69
2023/08/31 07:25:12;;;;;;;0.00;0.00;;;;;;;;;;7387836;19;20160;-70
2023/08/31 07:27:41;;;;;;;0.00;0.00;;;;;;;;;;7388939;19;20136;-68
2023/08/31 07:30:10;;;;;;;0.00;0.00;;;;;;;;;;7387373;19;20156;-70
2023/08/31 07:32:40;;;;;;;0.00;0.00;;;;;;;;;;7383812;19;20188;-70
2023/08/31 07:35:12;;;;;;;0.00;0.00;;;;;;;;;;7388407;19;20219;-69
2023/08/31 07:37:41;;;;;;;0.00;0.00;;;;;;;;;;7384439;19;20180;-70
2023/08/31 07:40:11;;;;;;;0.00;0.00;;;;;;;;;;7386424;19;20818;-69
2023/08/31 07:42:40;;;;;;;0.00;0.00;;;;;;;;;;7385068;19;20184;-71
2023/08/31 07:45:10;;;;;;;0.00;0.00;;;;;;;;;;7386625;19;20216;-71
2023/08/31 07:47:39;;;;;;;0.00;0.00;;;;;;;;;;7386157;19;20195;-70
2023/08/31 07:50:09;;;;;;;0.00;0.00;;;;;;;;;;7387149;19;20148;-69
2023/08/31 07:52:41;;;;;;;0.00;0.00;;;;;;;;;;7384360;19;20184;-69
2023/08/31 07:55:10;;;;;;;0.00;0.00;;;;;;;;;;7388870;19;20208;-71
2023/08/31 07:57:39;;;;;;;0.00;0.00;;;;;;;;;;7385679;19;20157;-70
2023/08/31 08:00:09;;;;;;;0.00;0.00;;;;;;;;;;7385948;19;20152;-69
2023/08/31 08:02:44;;;;;;;0.00;0.00;;;;;;;;;;7385959;19;20188;-70
2023/08/31 08:05:13;;;;;;;0.00;0.00;;;;;;;;;;7386853;19;20171;-70
2023/08/31 08:07:45;;;;;;;0.00;0.00;;;;;;;;;;7387894;19;20145;-70
2023/08/31 08:10:14;;;;;;;0.00;0.00;;;;;;;;;;7385574;19;20149;-69
2023/08/31 08:12:46;;;;;;;0.00;0.00;;;;;;;;;;7382911;19;20180;-70
2023/08/31 08:15:15;;;;;;;0.00;0.00;;;;;;;;;;7387834;19;20129;-70
2023/08/31 08:17:44;;;;;;;0.00;0.00;;;;;;;;;;7384176;19;20155;-71
2023/08/31 08:20:14;;;;;;;0.00;0.00;;;;;;;;;;7387024;19;20181;-69
2023/08/31 08:22:47;;;;;;;0.00;0.00;;;;;;;;;;7383603;19;20203;-68
2023/08/31 08:25:16;;;;;;;0.00;0.00;;;;;;;;;;7386013;19;20152;-69
2023/08/31 08:27:45;;;;;;;0.00;0.00;;;;;;;;;;7385611;19;20164;-69
2023/08/31 08:30:15;;;;;;;0.00;0.00;;;;;;;;;;7386018;19;20136;-69
2023/08/31 08:32:44;;;;;;;0.00;0.00;;;;;;;;;;7381904;19;20184;-69
2023/08/31 08:35:13;;;;;;;0.00;0.00;;;;;;;;;;7383809;19;20183;-68
2023/08/31 08:37:42;;;;;;;1.93;0.60;;;;;;;;;;7384432;19;20137;-70
2023/08/31 08:40:14;;;;;;;0.10;0.10;;;;;;;;;;7384953;19;20152;-68
2023/08/31 08:42:45;;;;;;;0.03;0.03;;;;;;;;;;7384556;19;20144;-70
2023/08/31 08:45:17;;;;;;;0.00;0.00;;;;;;;;;;7384602;19;20170;-69
2023/08/31 08:47:46;;;;;;;0.00;0.00;;;;;;;;;;7383989;19;20161;-69
2023/08/31 08:50:16;;;;;;;0.00;0.00;;;;;;;;;;7386206;19;20163;-70
2023/08/31 08:52:45;;;;;;;0.00;0.00;;;;;;;;;;7383459;19;20149;-69
2023/08/31 08:55:18;;;;;;;0.00;0.00;;;;;;;;;;7385934;19;20154;-69
2023/08/31 08:57:47;;;;;;;0.00;0.00;;;;;;;;;;7382724;19;20172;-69
2023/08/31 09:00:17;;;;;;;0.30;0.30;;;;;;;;;;7384628;19;20156;-69
2023/08/31 09:02:46;;;;;;;0.00;0.00;;;;;;;;;;7381591;19;20180;-70
2023/08/31 09:05:15;;;;;;;0.00;0.00;;;;;;;;;;7383702;19;20164;-69
2023/08/31 09:07:59;;;;;;;0.00;0.00;;;;;;;;;;7383308;19;20239;-70
2023/08/31 09:10:35;;;;;;;0.00;0.00;;;;;;;;;;7382394;19;20208;-70
2023/08/31 09:13:05;;;;;;;0.00;0.00;;;;;;;;;;7380307;19;20184;-70
2023/08/31 09:15:39;;;;;;;0.00;0.00;;;;;;;;;;7385114;19;20162;-69
2023/08/31 09:18:08;;;;;;;0.00;0.00;;;;;;;;;;7382133;19;20224;-69
2023/08/31 09:20:46;;;;;;;0.00;0.00;;;;;;;;;;7383314;19;20175;-70
2023/08/31 09:23:16;;;;;;;0.00;0.00;;;;;;;;;;7380277;19;20272;-69
2023/08/31 09:25:48;;;;;;;0.00;0.00;;;;;;;;;;7383602;19;20517;-70
2023/08/31 09:28:18;;;;;;;0.00;0.00;;;;;;;;;;7384974;19;20140;-70
2023/08/31 09:30:49;;;;;;;0.00;0.00;;;;;;;;;;7382314;19;20160;-70
2023/08/31 09:33:20;;;;;;;0.00;0.00;;;;;;;;;;7380441;19;20177;-69
2023/08/31 09:35:50;;;;;;;0.00;0.00;;;;;;;;;;7383965;19;20132;-69
2023/08/31 09:38:19;;;;;;;0.00;0.00;;;;;;;;;;7382811;19;20149;-70
2023/08/31 09:40:51;;;;;;;0.00;0.00;;;;;;;;;;7381402;19;20157;-69
2023/08/31 09:43:23;;;;;;;0.00;0.00;;;;;;;;;;7380125;19;20156;-69
2023/08/31 09:45:53;;;;;;;0.00;0.00;;;;;;;;;;7381856;19;20216;-68
2023/08/31 09:48:22;;;;;;;0.00;0.00;;;;;;;;;;7383695;19;20144;-70
2023/08/31 09:50:52;;;;;;;0.00;0.00;;;;;;;;;;7383489;19;20167;-69
2023/08/31 09:53:23;;;;;;;0.00;0.00;;;;;;;;;;7379391;19;20189;-70
2023/08/31 09:55:55;;;;;;;0.00;0.00;;;;;;;;;;7384861;19;20156;-70
2023/08/31 09:58:24;;;;;;;0.00;0.00;;;;;;;;;;7380477;19;20153;-70
2023/08/31 10:00:54;;;;;;;0.00;0.00;;;;;;;;;;7381694;19;20165;-70
2023/08/31 10:03:23;;;;;;;0.00;0.00;;;;;;;;;;7379643;19;20183;-69
2023/08/31 10:05:53;;;;;;;0.00;0.00;;;;;;;;;;7383585;19;20133;-70
2023/08/31 10:08:24;;;;;;;0.00;0.00;;;;;;;;;;7383564;19;20148;-69
2023/08/31 10:10:56;;;;;;;0.00;0.00;;;;;;;;;;7382828;19;20144;-71
2023/08/31 10:13:25;;;;;;;0.00;0.00;;;;;;;;;;7380737;19;20149;-70
2023/08/31 10:15:55;;;;;;;0.00;0.00;;;;;;;;;;7381777;19;20160;-69
2023/08/31 10:18:24;;;;;;;0.00;0.00;;;;;;;;;;7380560;19;20153;-70
2023/08/31 10:20:53;;;;;;;0.00;0.00;;;;;;;;;;7382535;19;20151;-70
2023/08/31 10:23:22;;;;;;;0.00;0.00;;;;;;;;;;7379911;19;20152;-69
2023/08/31 10:26:07;;;;;;;0.00;0.00;;;;;;;;;;7381022;19;20171;-70
2023/08/31 10:28:42;;;;;;;0.00;0.00;;;;;;;;;;7383254;19;20148;-70
2023/08/31 10:31:12;;;;;;;0.00;0.00;;;;;;;;;;7382563;19;20135;-69
2023/08/31 10:33:44;;;;;;;0.00;0.00;;;;;;;;;;7378075;19;20216;-68
2023/08/31 10:36:15;;;;;;;0.00;0.00;;;;;;;;;;7380788;19;20145;-69
2023/08/31 10:38:45;;;;;;;0.00;0.00;;;;;;;;;;7380756;19;20141;-70
2023/08/31 10:41:25;;;;;;;0.00;0.00;;;;;;;;;;7380590;19;20486;-69
2023/08/31 10:43:57;;;;;;;0.00;0.00;;;;;;;;;;7381580;19;20155;-69
2023/08/31 10:46:34;;;;;;;0.00;0.00;;;;;;;;;;7382828;19;20212;-69
2023/08/31 10:49:04;;;;;;;0.00;0.00;;;;;;;;;;7382845;19;20175;-70
2023/08/31 10:51:34;;;;;;;0.00;0.00;;;;;;;;;;7381898;19;20140;-70
2023/08/31 10:54:13;;;;;;;0.00;0.00;;;;;;;;;;7386743;19;20133;-69
2023/08/31 10:56:54;;;;;;;0.00;0.00;;;;;;;;;;7389488;19;20140;-70
2023/08/31 10:59:24;;;;;;;0.00;0.00;;;;;;;;;;7387257;19;20296;-69
2023/08/31 11:01:54;;;;;;;0.00;0.00;;;;;;;;;;7387238;19;20186;-70
2023/08/31 11:04:23;;;;;;;0.00;0.00;;;;;;;;;;7387457;19;20638;-70
2023/08/31 11:06:53;;;;;;;0.00;0.00;;;;;;;;;;7388362;19;20148;-68
2023/08/31 11:09:22;;;;;;;0.00;0.00;;;;;;;;;;7389584;19;20253;-70
2023/08/31 11:11:54;;;;;;;0.00;0.00;;;;;;;;;;7388311;19;20157;-69
2023/08/31 11:14:23;;;;;;;0.00;0.00;;;;;;;;;;7386097;19;20141;-69
2023/08/31 11:16:52;;;;;;;0.00;0.00;;;;;;;;;;7388832;19;20164;-70
2023/08/31 11:19:21;;;;;;;0.00;0.00;;;;;;;;;;7386535;19;20156;-70
2023/08/31 11:21:50;;;;;;;0.00;0.00;;;;;;;;;;7388282;19;20159;-70
2023/08/31 11:24:21;;;;;;;0.00;0.00;;;;;;;;;;7387494;19;20179;-70
2023/08/31 11:26:53;;;;;;;0.00;0.00;;;;;;;;;;7387035;19;20156;-70
2023/08/31 11:29:22;;;;;;;0.00;0.00;;;;;;;;;;7387795;19;20490;-70
2023/08/31 11:31:51;;;;;;;0.00;0.00;;;;;;;;;;7388691;19;20149;-69
2023/08/31 11:34:21;;;;;;;0.00;0.00;;;;;;;;;;7388415;19;20164;-70
2023/08/31 11:36:50;;;;;;;0.00;0.00;;;;;;;;;;7387360;19;20167;-70
2023/08/31 11:39:20;;;;;;;0.00;0.00;;;;;;;;;;7385017;19;20167;-70
2023/08/31 11:41:50;;;;;;;0.00;0.00;;;;;;;;;;7386973;19;20149;-69
2023/08/31 11:44:22;;;;;;;0.00;0.00;;;;;;;;;;7388609;19;20129;-69
2023/08/31 11:46:52;;;;;;;0.00;0.00;;;;;;;;;;7387854;19;20132;-70
2023/08/31 11:49:22;;;;;;;0.00;0.00;;;;;;;;;;7389063;19;20155;-69
2023/08/31 11:51:52;;;;;;;0.00;0.00;;;;;;;;;;7385525;19;20187;-70
2023/08/31 11:54:21;;;;;;;0.00;0.00;;;;;;;;;;7389929;19;20536;-69
2023/08/31 11:56:51;;;;;;;0.00;0.00;;;;;;;;;;7386590;19;20160;-70
2023/08/31 11:59:22;;;;;;;0.00;0.00;;;;;;;;;;7385767;19;20157;-69
2023/08/31 12:01:53;;;;;;;0.00;0.00;;;;;;;;;;7386980;19;20170;-70
2023/08/31 12:04:24;;;;;;;0.00;0.00;;;;;;;;;;7384909;19;20149;-70
2023/08/31 12:06:54;;;;;;;0.00;0.00;;;;;;;;;;7385581;19;20148;-73
2023/08/31 12:09:23;;;;;;;0.00;0.00;;;;;;;;;;7387883;19;20200;-75
2023/08/31 12:11:53;;;;;;;0.00;0.00;;;;;;;;;;7383762;19;20184;-72
2023/08/31 12:14:25;;;;;;;0.00;0.00;;;;;;;;;;7384626;19;20234;-70
2023/08/31 12:16:55;;;;;;;0.00;0.00;;;;;;;;;;7385986;19;20204;-72
2023/08/31 12:19:30;;;;;;;0.00;0.00;;;;;;;;;;7384804;19;20166;-71
2023/08/31 12:21:59;;;;;;;0.00;0.00;;;;;;;;;;7384371;19;20211;-71
2023/08/31 12:24:28;;;;;;;0.00;0.00;;;;;;;;;;7384929;19;20552;-71
2023/08/31 12:26:57;;;;;;;0.00;0.00;;;;;;;;;;7387369;19;20145;-71
2023/08/31 12:29:28;;;;;;;0.00;0.00;;;;;;;;;;7386542;19;20176;-71
2023/08/31 12:31:57;;;;;;;0.00;0.00;;;;;;;;;;7384411;19;20203;-72
2023/08/31 12:34:27;;;;;;;0.00;0.00;;;;;;;;;;7385782;19;20170;-71
2023/08/31 12:36:59;;;;;;;0.00;0.00;;;;;;;;;;7384171;19;20153;-72
2023/08/31 12:39:28;;;;;;;0.00;0.00;;;;;;;;;;7382578;19;20328;-73
2023/08/31 12:41:57;;;;;;;0.00;0.00;;;;;;;;;;7384630;19;20177;-71
2023/08/31 12:44:29;;;;;;;0.00;0.00;;;;;;;;;;7384316;19;20179;-71
2023/08/31 12:46:58;;;;;;;0.00;0.00;;;;;;;;;;7385987;19;20129;-72
2023/08/31 12:49:27;;;;;;;0.00;0.00;;;;;;;;;;7387420;19;20147;-72
2023/08/31 12:51:56;;;;;;;0.00;0.00;;;;;;;;;;7384243;19;20213;-70
2023/08/31 12:54:25;;;;;;;0.00;0.00;;;;;;;;;;7386307;19;20172;-71
2023/08/31 12:56:54;;;;;;;0.00;0.00;;;;;;;;;;7386041;19;20141;-72
2023/08/31 12:59:23;;;;;;;0.00;0.00;;;;;;;;;;7386393;19;20137;-72
2023/08/31 13:01:55;;;;;;;0.00;0.00;;;;;;;;;;7382953;19;20173;-70
2023/08/31 13:04:24;;;;;;;0.00;0.00;;;;;;;;;;7384339;19;20556;-70
2023/08/31 13:06:53;;;;;;;0.00;0.00;;;;;;;;;;7383894;19;20523;-71
2023/08/31 13:09:22;;;;;;;0.00;0.00;;;;;;;;;;7385838;19;20212;-72
2023/08/31 13:11:51;;;;;;;0.00;0.00;;;;;;;;;;7384783;19;20648;-71
2023/08/31 13:14:21;;;;;;;0.00;0.00;;;;;;;;;;7383009;19;20144;-71
2023/08/31 13:16:50;;;;;;;0.00;0.00;;;;;;;;;;7383329;19;20157;-71
2023/08/31 13:19:22;;;;;;;0.00;0.00;;;;;;;;;;7384568;19;20203;-71
2023/08/31 13:21:51;;;;;;;0.00;0.00;;;;;;;;;;7385043;19;20269;-71
2023/08/31 13:24:21;;;;;;;0.00;0.00;;;;;;;;;;7383500;19;20140;-72
2023/08/31 13:26:50;;;;;;;0.00;0.00;;;;;;;;;;7386534;19;20244;-71
2023/08/31 13:29:19;;;;;;;0.00;0.00;;;;;;;;;;7385151;19;20163;-71
2023/08/31 13:31:48;;;;;;;0.00;0.00;;;;;;;;;;7382978;19;20207;-71
2023/08/31 13:34:18;;;;;;;0.00;0.00;;;;;;;;;;7383915;19;20145;-70
2023/08/31 13:36:50;;;;;;;0.00;0.00;;;;;;;;;;7383262;19;20148;-70
2023/08/31 13:39:18;;;;;;;0.00;0.00;;;;;;;;;;7383089;19;20133;-71
2023/08/31 13:41:48;;;;;;;0.00;0.00;;;;;;;;;;7382449;19;20180;-71
2023/08/31 13:44:17;;;;;;;0.00;0.00;;;;;;;;;;7381404;19;20152;-71
2023/08/31 13:46:46;;;;;;;0.00;0.00;;;;;;;;;;7384326;19;20242;-71
2023/08/31 13:49:15;;;;;;;0.00;0.00;;;;;;;;;;7383304;19;20140;-70
2023/08/31 13:51:45;;;;;;;0.00;0.00;;;;;;;;;;7381726;19;20160;-71
2023/08/31 13:54:16;;;;;;;0.00;0.00;;;;;;;;;;7383805;19;20164;-71
2023/08/31 13:56:46;;;;;;;0.00;0.00;;;;;;;;;;7384607;19;20144;-71
2023/08/31 13:59:15;;;;;;;0.00;0.00;;;;;;;;;;7384220;19;20509;-72
2023/08/31 14:01:44;;;;;;;0.00;0.00;;;;;;;;;;7383604;19;20136;-72
2023/08/31 14:04:13;;;;;;;0.00;0.00;;;;;;;;;;7382634;19;20148;-72
2023/08/31 14:06:42;;;;;;;0.00;0.00;;;;;;;;;;7382693;19;20153;-71
2023/08/31 14:09:11;;;;;;;0.00;0.00;;;;;;;;;;7381953;19;20207;-71
2023/08/31 14:11:43;;;;;;;0.00;0.00;;;;;;;;;;7383708;19;20141;-70
2023/08/31 14:14:12;;;;;;;0.00;0.00;;;;;;;;;;7383472;19;20136;-71
2023/08/31 14:16:41;;;;;;;0.00;0.00;;;;;;;;;;7384142;19;20184;-71
2023/08/31 14:19:11;;;;;;;0.00;0.00;;;;;;;;;;7381678;19;20157;-70
2023/08/31 14:21:40;;;;;;;0.00;0.00;;;;;;;;;;7382553;19;20149;-71
2023/08/31 14:24:09;;;;;;;0.00;0.00;;;;;;;;;;7382455;19;20140;-70
2023/08/31 14:26:38;;;;;;;0.00;0.00;;;;;;;;;;7382380;19;20180;-71
2023/08/31 14:29:10;;;;;;;0.00;0.00;;;;;;;;;;7388601;19;20137;-71
2023/08/31 14:31:39;;;;;;;0.00;0.00;;;;;;;;;;7390643;19;20141;-71
2023/08/31 14:34:08;;;;;;;0.00;0.00;;;;;;;;;;7387575;19;20639;-69
2023/08/31 14:36:37;;;;;;;0.00;0.00;;;;;;;;;;7391666;19;20133;-71
2023/08/31 14:39:06;;;;;;;0.00;0.00;;;;;;;;;;7388260;19;20152;-70
2023/08/31 14:41:35;;;;;;;0.00;0.00;;;;;;;;;;7389084;19;20156;-71
2023/08/31 14:44:04;;;;;;;0.00;0.00;;;;;;;;;;7391478;19;20137;-70
2023/08/31 14:46:35;;;;;;;0.00;0.00;;;;;;;;;;7391742;19;20164;-70
2023/08/31 14:49:04;;;;;;;0.00;0.00;;;;;;;;;;7389884;19;20179;-69
2023/08/31 14:51:33;;;;;;;0.00;0.00;;;;;;;;;;7387868;19;20167;-70
2023/08/31 14:54:03;;;;;;;0.00;0.00;;;;;;;;;;7390593;19;20161;-69
2023/08/31 14:56:31;;;;;;;0.00;0.00;;;;;;;;;;7392050;19;20129;-70
2023/08/31 14:59:00;;;;;;;0.00;0.00;;;;;;;;;;7387431;19;20176;-69
2023/08/31 15:01:30;;;;;;;0.00;0.00;;;;;;;;;;7389853;19;20140;-71